sensor_id;sensor_type;location;lat;lon;timestamp;P1;durP1;ratioP1;P2;durP2;ratioP2
15183;SDS011;7693;49.266;7.104;2023-04-25T04:34:31;15.07;;;13.50;;
15183;SDS011;7693;49.266;7.104;2023-04-25T04:36:56;16.73;;;15.13;;
15183;SDS011;7693;49.266;7.104;2023-04-25T04:39:22;17.03;;;15.20;;
15183;SDS011;7693;49.266;7.104;2023-04-25T04:41:48;16.20;;;14.57;;
15183;SDS011;7693;49.266;7.104;2023-04-25T04:44:13;16.53;;;14.83;;
15183;SDS011;7693;49.266;7.104;2023-04-25T04:46:39;19.80;;;14.83;;
15183;SDS011;7693;49.266;7.104;2023-04-25T04:49:08;14.60;;;13.10;;
15183;SDS011;7693;49.266;7.104;2023-04-25T04:51:34;13.53;;;12.23;;
15183;SDS011;7693;49.266;7.104;2023-04-25T04:54:00;13.50;;;12.17;;
15183;SDS011;7693;49.266;7.104;2023-04-25T04:56:27;14.00;;;12.67;;
15183;SDS011;7693;49.266;7.104;2023-04-25T04:58:55;14.63;;;13.30;;
15183;SDS011;7693;49.266;7.104;2023-04-25T05:01:22;14.37;;;13.07;;
15183;SDS011;7693;49.266;7.104;2023-04-25T05:03:48;13.27;;;12.00;;
15183;SDS011;7693;49.266;7.104;2023-04-25T05:06:14;14.23;;;12.77;;
15183;SDS011;7693;49.266;7.104;2023-04-25T05:08:39;13.27;;;11.83;;
15183;SDS011;7693;49.266;7.104;2023-04-25T05:11:05;13.67;;;12.47;;
15183;SDS011;7693;49.266;7.104;2023-04-25T05:13:30;14.93;;;13.53;;
15183;SDS011;7693;49.266;7.104;2023-04-25T05:15:56;15.87;;;12.77;;
15183;SDS011;7693;49.266;7.104;2023-04-25T05:18:22;12.90;;;11.80;;
15183;SDS011;7693;49.266;7.104;2023-04-25T05:20:47;12.60;;;11.47;;
15183;SDS011;7693;49.266;7.104;2023-04-25T05:23:13;12.27;;;11.07;;
15183;SDS011;7693;49.266;7.104;2023-04-25T05:25:38;13.13;;;11.73;;
15183;SDS011;7693;49.266;7.104;2023-04-25T05:28:04;12.47;;;11.37;;
15183;SDS011;7693;49.266;7.104;2023-04-25T05:30:30;12.53;;;11.37;;
15183;SDS011;7693;49.266;7.104;2023-04-25T05:32:56;15.93;;;13.10;;
15183;SDS011;7693;49.266;7.104;2023-04-25T05:35:21;13.20;;;11.90;;
15183;SDS011;7693;49.266;7.104;2023-04-25T05:37:47;14.33;;;11.90;;
15183;SDS011;7693;49.266;7.104;2023-04-25T05:40:12;13.17;;;11.80;;
15183;SDS011;7693;49.266;7.104;2023-04-25T05:42:38;15.20;;;12.53;;
15183;SDS011;7693;49.266;7.104;2023-04-25T05:45:04;14.03;;;12.63;;
15183;SDS011;7693;49.266;7.104;2023-04-25T05:47:30;14.57;;;13.27;;
15183;SDS011;7693;49.266;7.104;2023-04-25T05:49:56;14.90;;;13.40;;
15183;SDS011;7693;49.266;7.104;2023-04-25T05:52:22;15.40;;;13.77;;
15183;SDS011;7693;49.266;7.104;2023-04-25T05:54:47;14.20;;;12.80;;
15183;SDS011;7693;49.266;7.104;2023-04-25T05:57:23;13.47;;;12.17;;
15183;SDS011;7693;49.266;7.104;2023-04-25T05:59:50;13.30;;;12.00;;
15183;SDS011;7693;49.266;7.104;2023-04-25T06:02:16;13.80;;;12.40;;
15183;SDS011;7693;49.266;7.104;2023-04-25T06:04:42;13.90;;;12.60;;
15183;SDS011;7693;49.266;7.104;2023-04-25T06:07:08;14.43;;;12.57;;
15183;SDS011;7693;49.266;7.104;2023-04-25T06:09:34;14.77;;;13.27;;
15183;SDS011;7693;49.266;7.104;2023-04-25T06:11:59;13.73;;;12.43;;
15183;SDS011;7693;49.266;7.104;2023-04-25T06:14:26;14.10;;;12.70;;
15183;SDS011;7693;49.266;7.104;2023-04-25T06:16:51;13.27;;;11.97;;
15183;SDS011;7693;49.266;7.104;2023-04-25T06:19:17;14.43;;;12.93;;
15183;SDS011;7693;49.266;7.104;2023-04-25T06:21:43;12.97;;;11.73;;
15183;SDS011;7693;49.266;7.104;2023-04-25T06:24:09;14.23;;;12.73;;
15183;SDS011;7693;49.266;7.104;2023-04-25T06:26:34;14.33;;;12.27;;
15183;SDS011;7693;49.266;7.104;2023-04-25T06:29:00;13.87;;;12.53;;
15183;SDS011;7693;49.266;7.104;2023-04-25T06:31:26;14.17;;;12.77;;
15183;SDS011;7693;49.266;7.104;2023-04-25T06:33:51;13.93;;;12.73;;
15183;SDS011;7693;49.266;7.104;2023-04-25T06:36:19;14.03;;;12.53;;
15183;SDS011;7693;49.266;7.104;2023-04-25T06:38:49;15.43;;;13.87;;
15183;SDS011;7693;49.266;7.104;2023-04-25T06:41:15;15.20;;;13.63;;
15183;SDS011;7693;49.266;7.104;2023-04-25T06:43:41;15.40;;;13.07;;
15183;SDS011;7693;49.266;7.104;2023-04-25T06:46:06;14.97;;;13.57;;
15183;SDS011;7693;49.266;7.104;2023-04-25T06:48:32;16.20;;;12.20;;
15183;SDS011;7693;49.266;7.104;2023-04-25T06:50:58;14.30;;;12.80;;
15183;SDS011;7693;49.266;7.104;2023-04-25T06:53:23;13.00;;;11.80;;
15183;SDS011;7693;49.266;7.104;2023-04-25T06:55:49;14.00;;;12.67;;
15183;SDS011;7693;49.266;7.104;2023-04-25T06:58:15;13.90;;;12.70;;
15183;SDS011;7693;49.266;7.104;2023-04-25T07:00:40;12.37;;;11.10;;
15183;SDS011;7693;49.266;7.104;2023-04-25T07:03:06;12.13;;;10.93;;
15183;SDS011;7693;49.266;7.104;2023-04-25T07:05:32;12.67;;;11.47;;
15183;SDS011;7693;49.266;7.104;2023-04-25T07:07:57;12.80;;;11.70;;
15183;SDS011;7693;49.266;7.104;2023-04-25T07:10:23;11.90;;;10.80;;
15183;SDS011;7693;49.266;7.104;2023-04-25T07:12:49;12.23;;;11.13;;
15183;SDS011;7693;49.266;7.104;2023-04-25T07:15:14;12.93;;;11.43;;
15183;SDS011;7693;49.266;7.104;2023-04-25T07:17:40;11.07;;;10.13;;
15183;SDS011;7693;49.266;7.104;2023-04-25T07:20:05;11.53;;;10.50;;
15183;SDS011;7693;49.266;7.104;2023-04-25T07:22:32;11.70;;;10.63;;
15183;SDS011;7693;49.266;7.104;2023-04-25T07:24:58;12.17;;;10.80;;
15183;SDS011;7693;49.266;7.104;2023-04-25T07:27:23;12.67;;;11.30;;
15183;SDS011;7693;49.266;7.104;2023-04-25T07:29:49;13.43;;;12.23;;
15183;SDS011;7693;49.266;7.104;2023-04-25T07:32:14;13.97;;;12.67;;
15183;SDS011;7693;49.266;7.104;2023-04-25T07:34:40;11.90;;;9.87;;
15183;SDS011;7693;49.266;7.104;2023-04-25T07:37:06;13.73;;;12.43;;
15183;SDS011;7693;49.266;7.104;2023-04-25T07:39:32;11.33;;;10.33;;
15183;SDS011;7693;49.266;7.104;2023-04-25T07:41:57;11.37;;;10.10;;
15183;SDS011;7693;49.266;7.104;2023-04-25T07:44:27;8.63;;;8.03;;
15183;SDS011;7693;49.266;7.104;2023-04-25T07:46:52;8.80;;;8.07;;
15183;SDS011;7693;49.266;7.104;2023-04-25T07:49:18;8.97;;;8.10;;
15183;SDS011;7693;49.266;7.104;2023-04-25T07:51:44;8.80;;;8.10;;
15183;SDS011;7693;49.266;7.104;2023-04-25T07:54:10;7.63;;;7.07;;
15183;SDS011;7693;49.266;7.104;2023-04-25T07:56:40;7.60;;;6.87;;
15183;SDS011;7693;49.266;7.104;2023-04-25T07:59:05;6.90;;;6.27;;
15183;SDS011;7693;49.266;7.104;2023-04-25T08:01:31;6.73;;;6.20;;
15183;SDS011;7693;49.266;7.104;2023-04-25T08:03:59;6.50;;;6.20;;
15183;SDS011;7693;49.266;7.104;2023-04-25T08:06:24;6.40;;;5.90;;
15183;SDS011;7693;49.266;7.104;2023-04-25T08:08:50;7.40;;;6.87;;
15183;SDS011;7693;49.266;7.104;2023-04-25T08:11:16;8.73;;;7.93;;
15183;SDS011;7693;49.266;7.104;2023-04-25T08:13:42;7.70;;;7.20;;
15183;SDS011;7693;49.266;7.104;2023-04-25T08:16:07;8.47;;;7.80;;
15183;SDS011;7693;49.266;7.104;2023-04-25T08:18:33;6.70;;;6.20;;
15183;SDS011;7693;49.266;7.104;2023-04-25T08:20:58;7.80;;;7.20;;
15183;SDS011;7693;49.266;7.104;2023-04-25T08:23:24;7.80;;;7.03;;
15183;SDS011;7693;49.266;7.104;2023-04-25T08:25:50;7.00;;;6.57;;
15183;SDS011;7693;49.266;7.104;2023-04-25T08:28:16;6.87;;;6.43;;
15183;SDS011;7693;49.266;7.104;2023-04-25T08:30:41;7.10;;;6.67;;
15183;SDS011;7693;49.266;7.104;2023-04-25T08:33:07;5.93;;;5.60;;
15183;SDS011;7693;49.266;7.104;2023-04-25T08:35:32;7.43;;;6.90;;
15183;SDS011;7693;49.266;7.104;2023-04-25T08:37:58;8.33;;;7.20;;
15183;SDS011;7693;49.266;7.104;2023-04-25T08:40:24;11.37;;;10.37;;
15183;SDS011;7693;49.266;7.104;2023-04-25T08:42:55;7.40;;;6.70;;
15183;SDS011;7693;49.266;7.104;2023-04-25T08:45:26;6.23;;;5.80;;
15183;SDS011;7693;49.266;7.104;2023-04-25T08:47:53;7.50;;;6.80;;
15183;SDS011;7693;49.266;7.104;2023-04-25T08:50:22;6.23;;;5.77;;
15183;SDS011;7693;49.266;7.104;2023-04-25T08:52:48;6.03;;;5.63;;
15183;SDS011;7693;49.266;7.104;2023-04-25T08:55:17;8.10;;;7.40;;
15183;SDS011;7693;49.266;7.104;2023-04-25T08:57:44;9.00;;;8.20;;
15183;SDS011;7693;49.266;7.104;2023-04-25T09:00:10;7.20;;;6.60;;
15183;SDS011;7693;49.266;7.104;2023-04-25T09:02:38;8.27;;;7.57;;
15183;SDS011;7693;49.266;7.104;2023-04-25T09:05:04;7.60;;;7.00;;
15183;SDS011;7693;49.266;7.104;2023-04-25T09:07:31;8.27;;;7.60;;
15183;SDS011;7693;49.266;7.104;2023-04-25T09:09:57;5.60;;;5.20;;
15183;SDS011;7693;49.266;7.104;2023-04-25T09:12:26;7.50;;;6.90;;
15183;SDS011;7693;49.266;7.104;2023-04-25T09:15:04;6.93;;;6.33;;
15183;SDS011;7693;49.266;7.104;2023-04-25T09:17:32;6.17;;;5.80;;
15183;SDS011;7693;49.266;7.104;2023-04-25T09:20:07;6.87;;;6.27;;
15183;SDS011;7693;49.266;7.104;2023-04-25T09:22:33;6.73;;;6.23;;
15183;SDS011;7693;49.266;7.104;2023-04-25T09:25:02;5.80;;;5.43;;
15183;SDS011;7693;49.266;7.104;2023-04-25T09:27:42;6.33;;;5.73;;
15183;SDS011;7693;49.266;7.104;2023-04-25T09:30:16;5.50;;;5.20;;
15183;SDS011;7693;49.266;7.104;2023-04-25T09:32:42;2.60;;;2.50;;
15183;SDS011;7693;49.266;7.104;2023-04-25T09:35:08;3.40;;;3.20;;
15183;SDS011;7693;49.266;7.104;2023-04-25T09:37:35;3.33;;;3.20;;
15183;SDS011;7693;49.266;7.104;2023-04-25T09:40:03;3.20;;;3.00;;
15183;SDS011;7693;49.266;7.104;2023-04-25T09:42:30;3.40;;;3.30;;
15183;SDS011;7693;49.266;7.104;2023-04-25T09:44:57;3.97;;;3.77;;
15183;SDS011;7693;49.266;7.104;2023-04-25T09:47:24;4.63;;;4.40;;
15183;SDS011;7693;49.266;7.104;2023-04-25T09:49:51;4.53;;;4.33;;
15183;SDS011;7693;49.266;7.104;2023-04-25T09:52:21;4.50;;;4.30;;
15183;SDS011;7693;49.266;7.104;2023-04-25T09:54:48;5.33;;;5.00;;
15183;SDS011;7693;49.266;7.104;2023-04-25T09:57:19;6.90;;;5.93;;
15183;SDS011;7693;49.266;7.104;2023-04-25T09:59:46;7.50;;;7.00;;
15183;SDS011;7693;49.266;7.104;2023-04-25T10:02:14;8.53;;;7.83;;
15183;SDS011;7693;49.266;7.104;2023-04-25T10:04:42;7.80;;;7.03;;
15183;SDS011;7693;49.266;7.104;2023-04-25T12:12:17;5.80;;;5.50;;
15183;SDS011;7693;49.266;7.104;2023-04-25T12:14:45;5.47;;;5.00;;
15183;SDS011;7693;49.266;7.104;2023-04-25T12:17:13;6.43;;;5.77;;
15183;SDS011;7693;49.266;7.104;2023-04-25T12:19:39;5.93;;;5.23;;
15183;SDS011;7693;49.266;7.104;2023-04-25T12:22:18;6.00;;;4.67;;
15183;SDS011;7693;49.266;7.104;2023-04-25T12:24:46;4.43;;;4.20;;
15183;SDS011;7693;49.266;7.104;2023-04-25T12:27:13;5.60;;;5.17;;
15183;SDS011;7693;49.266;7.104;2023-04-25T12:29:49;4.87;;;4.57;;
15183;SDS011;7693;49.266;7.104;2023-04-25T12:32:18;4.93;;;4.63;;
15183;SDS011;7693;49.266;7.104;2023-04-25T12:34:44;6.73;;;4.40;;
15183;SDS011;7693;49.266;7.104;2023-04-25T12:37:10;4.90;;;4.50;;
15183;SDS011;7693;49.266;7.104;2023-04-25T12:39:36;5.00;;;4.70;;
15183;SDS011;7693;49.266;7.104;2023-04-25T12:42:02;4.60;;;4.10;;
15183;SDS011;7693;49.266;7.104;2023-04-25T12:44:28;4.80;;;3.93;;
15183;SDS011;7693;49.266;7.104;2023-04-25T12:46:54;4.23;;;3.80;;
15183;SDS011;7693;49.266;7.104;2023-04-25T12:49:19;4.53;;;4.10;;
15183;SDS011;7693;49.266;7.104;2023-04-25T12:51:45;4.20;;;3.87;;
15183;SDS011;7693;49.266;7.104;2023-04-25T12:54:11;4.50;;;4.10;;
15183;SDS011;7693;49.266;7.104;2023-04-25T12:56:37;4.73;;;3.77;;
15183;SDS011;7693;49.266;7.104;2023-04-25T12:59:03;3.60;;;3.30;;
15183;SDS011;7693;49.266;7.104;2023-04-25T13:01:29;5.10;;;3.50;;
15183;SDS011;7693;49.266;7.104;2023-04-25T13:03:55;3.53;;;3.33;;
15183;SDS011;7693;49.266;7.104;2023-04-25T13:06:23;3.37;;;3.27;;
15183;SDS011;7693;49.266;7.104;2023-04-25T13:08:49;3.50;;;3.30;;
15183;SDS011;7693;49.266;7.104;2023-04-25T13:11:15;3.97;;;3.60;;
15183;SDS011;7693;49.266;7.104;2023-04-25T13:13:40;4.23;;;3.77;;
15183;SDS011;7693;49.266;7.104;2023-04-25T13:16:07;4.23;;;3.97;;
15183;SDS011;7693;49.266;7.104;2023-04-25T13:18:33;4.17;;;3.90;;
15183;SDS011;7693;49.266;7.104;2023-04-25T13:20:59;3.73;;;3.50;;
15183;SDS011;7693;49.266;7.104;2023-04-25T13:23:27;4.17;;;3.77;;
15183;SDS011;7693;49.266;7.104;2023-04-25T13:25:53;3.27;;;3.07;;
15183;SDS011;7693;49.266;7.104;2023-04-25T13:28:20;3.77;;;3.40;;
15183;SDS011;7693;49.266;7.104;2023-04-25T13:30:46;3.90;;;3.60;;
15183;SDS011;7693;49.266;7.104;2023-04-25T13:33:12;3.47;;;2.83;;
15183;SDS011;7693;49.266;7.104;2023-04-25T13:35:38;3.47;;;3.23;;
15183;SDS011;7693;49.266;7.104;2023-04-25T13:38:04;3.93;;;3.63;;
15183;SDS011;7693;49.266;7.104;2023-04-25T13:40:33;3.20;;;3.00;;
15183;SDS011;7693;49.266;7.104;2023-04-25T13:43:01;3.33;;;3.13;;
15183;SDS011;7693;49.266;7.104;2023-04-25T13:45:26;3.03;;;2.93;;
15183;SDS011;7693;49.266;7.104;2023-04-25T13:47:52;3.17;;;2.93;;
15183;SDS011;7693;49.266;7.104;2023-04-25T13:50:18;3.57;;;3.27;;
15183;SDS011;7693;49.266;7.104;2023-04-25T13:52:43;3.70;;;3.40;;
15183;SDS011;7693;49.266;7.104;2023-04-25T13:55:10;3.07;;;2.93;;
15183;SDS011;7693;49.266;7.104;2023-04-25T13:57:36;3.17;;;2.97;;
15183;SDS011;7693;49.266;7.104;2023-04-25T14:00:03;3.30;;;2.90;;
15183;SDS011;7693;49.266;7.104;2023-04-25T14:02:33;3.20;;;2.90;;
15183;SDS011;7693;49.266;7.104;2023-04-25T14:04:59;4.83;;;2.90;;
15183;SDS011;7693;49.266;7.104;2023-04-25T14:07:25;4.37;;;4.03;;
15183;SDS011;7693;49.266;7.104;2023-04-25T14:09:51;2.80;;;2.70;;
15183;SDS011;7693;49.266;7.104;2023-04-25T14:12:17;3.90;;;3.33;;
15183;SDS011;7693;49.266;7.104;2023-04-25T14:14:42;3.30;;;3.10;;
15183;SDS011;7693;49.266;7.104;2023-04-25T14:17:08;4.03;;;3.57;;
15183;SDS011;7693;49.266;7.104;2023-04-25T14:19:34;2.83;;;2.70;;
15183;SDS011;7693;49.266;7.104;2023-04-25T14:21:59;3.10;;;2.90;;
15183;SDS011;7693;49.266;7.104;2023-04-25T14:24:25;3.30;;;3.00;;
15183;SDS011;7693;49.266;7.104;2023-04-25T14:26:51;3.20;;;2.90;;
15183;SDS011;7693;49.266;7.104;2023-04-25T14:29:16;2.80;;;2.60;;
15183;SDS011;7693;49.266;7.104;2023-04-25T14:31:42;3.13;;;2.83;;
15183;SDS011;7693;49.266;7.104;2023-04-25T14:34:08;3.23;;;3.03;;
15183;SDS011;7693;49.266;7.104;2023-04-25T14:36:35;5.20;;;3.43;;
15183;SDS011;7693;49.266;7.104;2023-04-25T14:39:01;3.87;;;3.00;;
15183;SDS011;7693;49.266;7.104;2023-04-25T14:41:28;3.83;;;3.30;;
15183;SDS011;7693;49.266;7.104;2023-04-25T14:43:53;3.23;;;3.03;;
15183;SDS011;7693;49.266;7.104;2023-04-25T14:46:19;3.50;;;2.70;;
15183;SDS011;7693;49.266;7.104;2023-04-25T14:48:47;3.17;;;2.97;;
15183;SDS011;7693;49.266;7.104;2023-04-25T14:51:12;3.47;;;3.23;;
15183;SDS011;7693;49.266;7.104;2023-04-25T14:53:39;4.37;;;3.33;;
15183;SDS011;7693;49.266;7.104;2023-04-25T14:56:05;3.33;;;3.03;;
15183;SDS011;7693;49.266;7.104;2023-04-25T14:58:32;3.60;;;3.33;;
15183;SDS011;7693;49.266;7.104;2023-04-25T15:01:00;3.40;;;3.20;;
15183;SDS011;7693;49.266;7.104;2023-04-25T15:03:26;4.07;;;2.93;;
15183;SDS011;7693;49.266;7.104;2023-04-25T15:05:52;3.37;;;2.63;;
15183;SDS011;7693;49.266;7.104;2023-04-25T15:08:19;3.10;;;2.87;;
15183;SDS011;7693;49.266;7.104;2023-04-25T15:10:45;3.13;;;2.60;;
15183;SDS011;7693;49.266;7.104;2023-04-25T15:13:11;3.30;;;3.00;;
15183;SDS011;7693;49.266;7.104;2023-04-25T15:15:37;2.77;;;2.57;;
15183;SDS011;7693;49.266;7.104;2023-04-25T15:18:02;3.90;;;3.23;;
15183;SDS011;7693;49.266;7.104;2023-04-25T15:20:28;4.57;;;3.20;;
15183;SDS011;7693;49.266;7.104;2023-04-25T15:22:54;3.53;;;3.20;;
15183;SDS011;7693;49.266;7.104;2023-04-25T15:25:20;3.73;;;3.37;;
15183;SDS011;7693;49.266;7.104;2023-04-25T15:27:46;3.47;;;3.10;;
15183;SDS011;7693;49.266;7.104;2023-04-25T15:30:16;3.33;;;3.00;;
15183;SDS011;7693;49.266;7.104;2023-04-25T15:32:43;3.90;;;3.10;;
15183;SDS011;7693;49.266;7.104;2023-04-25T15:35:12;3.10;;;2.90;;
15183;SDS011;7693;49.266;7.104;2023-04-25T15:37:38;2.97;;;2.87;;
15183;SDS011;7693;49.266;7.104;2023-04-25T15:42:38;4.13;;;3.27;;
15183;SDS011;7693;49.266;7.104;2023-04-25T15:45:06;3.40;;;2.87;;
15183;SDS011;7693;49.266;7.104;2023-04-25T15:47:33;3.03;;;2.60;;
15183;SDS011;7693;49.266;7.104;2023-04-25T15:50:00;6.10;;;3.30;;
15183;SDS011;7693;49.266;7.104;2023-04-25T15:52:26;3.07;;;2.80;;
15183;SDS011;7693;49.266;7.104;2023-04-25T15:54:52;3.63;;;3.10;;
15183;SDS011;7693;49.266;7.104;2023-04-25T15:57:19;3.10;;;2.90;;
15183;SDS011;7693;49.266;7.104;2023-04-25T15:59:44;4.10;;;3.23;;
15183;SDS011;7693;49.266;7.104;2023-04-25T16:02:11;4.73;;;4.27;;
15183;SDS011;7693;49.266;7.104;2023-04-25T16:04:38;3.40;;;2.90;;
15183;SDS011;7693;49.266;7.104;2023-04-25T16:07:03;3.53;;;3.23;;
15183;SDS011;7693;49.266;7.104;2023-04-25T16:09:29;4.13;;;3.00;;
15183;SDS011;7693;49.266;7.104;2023-04-25T16:11:55;3.17;;;2.87;;
15183;SDS011;7693;49.266;7.104;2023-04-25T16:14:21;2.80;;;2.63;;
15183;SDS011;7693;49.266;7.104;2023-04-25T16:16:47;3.60;;;3.30;;
15183;SDS011;7693;49.266;7.104;2023-04-25T16:19:12;5.60;;;3.30;;
15183;SDS011;7693;49.266;7.104;2023-04-25T16:21:38;3.77;;;2.93;;
15183;SDS011;7693;49.266;7.104;2023-04-25T16:24:04;3.07;;;2.93;;
15183;SDS011;7693;49.266;7.104;2023-04-25T16:26:29;3.67;;;2.90;;
15183;SDS011;7693;49.266;7.104;2023-04-25T16:28:55;3.77;;;3.47;;
15183;SDS011;7693;49.266;7.104;2023-04-25T16:31:21;5.30;;;3.07;;
15183;SDS011;7693;49.266;7.104;2023-04-25T16:33:46;4.23;;;2.87;;
15183;SDS011;7693;49.266;7.104;2023-04-25T16:36:12;3.73;;;3.50;;
15183;SDS011;7693;49.266;7.104;2023-04-25T16:38:38;3.33;;;3.03;;
15183;SDS011;7693;49.266;7.104;2023-04-25T16:41:04;7.20;;;3.30;;
15183;SDS011;7693;49.266;7.104;2023-04-25T16:43:30;3.23;;;3.03;;
15183;SDS011;7693;49.266;7.104;2023-04-25T16:45:56;3.47;;;3.13;;
15183;SDS011;7693;49.266;7.104;2023-04-25T16:48:22;4.47;;;2.93;;
15183;SDS011;7693;49.266;7.104;2023-04-25T16:50:49;3.83;;;3.50;;
15183;SDS011;7693;49.266;7.104;2023-04-25T16:53:16;3.33;;;2.97;;
15183;SDS011;7693;49.266;7.104;2023-04-25T16:55:42;8.33;;;5.83;;
15183;SDS011;7693;49.266;7.104;2023-04-25T16:58:07;5.53;;;3.13;;
15183;SDS011;7693;49.266;7.104;2023-04-25T17:00:39;3.47;;;3.27;;
15183;SDS011;7693;49.266;7.104;2023-04-25T17:03:05;4.07;;;3.53;;
15183;SDS011;7693;49.266;7.104;2023-04-25T17:05:31;13.37;;;9.60;;
15183;SDS011;7693;49.266;7.104;2023-04-25T17:08:01;9.67;;;8.30;;
15183;SDS011;7693;49.266;7.104;2023-04-25T17:10:27;7.57;;;3.30;;
15183;SDS011;7693;49.266;7.104;2023-04-25T17:12:52;3.97;;;3.33;;
15183;SDS011;7693;49.266;7.104;2023-04-25T17:15:18;3.50;;;3.30;;
15183;SDS011;7693;49.266;7.104;2023-04-25T17:17:44;9.20;;;5.97;;
15183;SDS011;7693;49.266;7.104;2023-04-25T17:20:10;3.90;;;2.90;;
15183;SDS011;7693;49.266;7.104;2023-04-25T17:22:37;4.93;;;3.73;;
15183;SDS011;7693;49.266;7.104;2023-04-25T17:25:03;4.30;;;3.30;;
15183;SDS011;7693;49.266;7.104;2023-04-25T17:27:31;4.47;;;3.60;;
15183;SDS011;7693;49.266;7.104;2023-04-25T17:29:57;4.83;;;3.10;;
15183;SDS011;7693;49.266;7.104;2023-04-25T17:32:22;3.50;;;3.30;;
15183;SDS011;7693;49.266;7.104;2023-04-25T17:34:48;5.47;;;3.30;;
15183;SDS011;7693;49.266;7.104;2023-04-25T17:37:14;9.93;;;4.47;;
15183;SDS011;7693;49.266;7.104;2023-04-25T17:39:43;8.17;;;5.47;;
15183;SDS011;7693;49.266;7.104;2023-04-25T17:42:09;4.47;;;3.40;;
15183;SDS011;7693;49.266;7.104;2023-04-25T17:44:36;4.60;;;4.20;;
15183;SDS011;7693;49.266;7.104;2023-04-25T17:47:03;4.03;;;3.27;;
15183;SDS011;7693;49.266;7.104;2023-04-25T17:49:30;3.30;;;3.03;;
15183;SDS011;7693;49.266;7.104;2023-04-25T17:51:57;3.73;;;2.87;;
15183;SDS011;7693;49.266;7.104;2023-04-25T17:54:22;3.33;;;2.83;;
15183;SDS011;7693;49.266;7.104;2023-04-25T17:56:48;3.00;;;2.80;;
15183;SDS011;7693;49.266;7.104;2023-04-25T17:59:14;4.20;;;3.50;;
15183;SDS011;7693;49.266;7.104;2023-04-25T18:01:40;4.33;;;3.50;;
15183;SDS011;7693;49.266;7.104;2023-04-25T18:04:06;6.87;;;6.23;;
15183;SDS011;7693;49.266;7.104;2023-04-25T18:06:32;4.47;;;3.70;;
15183;SDS011;7693;49.266;7.104;2023-04-25T18:08:58;3.83;;;3.47;;
15183;SDS011;7693;49.266;7.104;2023-04-25T18:11:26;3.60;;;3.00;;
15183;SDS011;7693;49.266;7.104;2023-04-25T18:13:53;5.37;;;3.27;;
15183;SDS011;7693;49.266;7.104;2023-04-25T18:16:18;5.43;;;4.93;;
15183;SDS011;7693;49.266;7.104;2023-04-25T18:18:45;3.90;;;3.50;;
15183;SDS011;7693;49.266;7.104;2023-04-25T18:21:16;4.77;;;3.40;;
15183;SDS011;7693;49.266;7.104;2023-04-25T18:23:45;3.33;;;3.03;;
15183;SDS011;7693;49.266;7.104;2023-04-25T18:26:10;3.43;;;3.23;;
15183;SDS011;7693;49.266;7.104;2023-04-25T18:28:36;3.77;;;3.40;;
15183;SDS011;7693;49.266;7.104;2023-04-25T18:31:02;7.67;;;4.00;;
15183;SDS011;7693;49.266;7.104;2023-04-25T18:33:28;3.83;;;3.53;;
15183;SDS011;7693;49.266;7.104;2023-04-25T18:35:55;4.23;;;3.77;;
15183;SDS011;7693;49.266;7.104;2023-04-25T18:38:22;5.67;;;3.37;;
15183;SDS011;7693;49.266;7.104;2023-04-25T18:40:48;4.17;;;3.80;;
15183;SDS011;7693;49.266;7.104;2023-04-25T18:43:14;6.23;;;3.93;;
15183;SDS011;7693;49.266;7.104;2023-04-25T18:45:40;5.33;;;3.97;;
15183;SDS011;7693;49.266;7.104;2023-04-25T18:48:06;4.30;;;3.93;;
15183;SDS011;7693;49.266;7.104;2023-04-25T18:50:31;6.33;;;3.83;;
15183;SDS011;7693;49.266;7.104;2023-04-25T18:52:57;6.73;;;3.80;;
15183;SDS011;7693;49.266;7.104;2023-04-25T18:55:23;4.03;;;3.63;;
15183;SDS011;7693;49.266;7.104;2023-04-25T18:57:50;3.60;;;3.30;;
15183;SDS011;7693;49.266;7.104;2023-04-25T19:00:15;6.47;;;3.50;;
15183;SDS011;7693;49.266;7.104;2023-04-25T19:02:41;4.57;;;3.50;;
15183;SDS011;7693;49.266;7.104;2023-04-25T19:05:07;5.27;;;3.63;;
15183;SDS011;7693;49.266;7.104;2023-04-25T19:07:34;4.80;;;3.63;;
15183;SDS011;7693;49.266;7.104;2023-04-25T19:10:01;3.90;;;3.50;;
15183;SDS011;7693;49.266;7.104;2023-04-25T19:12:28;6.50;;;3.60;;
15183;SDS011;7693;49.266;7.104;2023-04-25T19:14:53;5.63;;;3.70;;
15183;SDS011;7693;49.266;7.104;2023-04-25T19:17:20;3.90;;;3.50;;
15183;SDS011;7693;49.266;7.104;2023-04-25T19:19:46;5.23;;;3.73;;
15183;SDS011;7693;49.266;7.104;2023-04-25T19:22:11;4.63;;;3.77;;
15183;SDS011;7693;49.266;7.104;2023-04-25T19:24:38;3.50;;;3.20;;
15183;SDS011;7693;49.266;7.104;2023-04-25T19:27:04;4.80;;;3.73;;
15183;SDS011;7693;49.266;7.104;2023-04-25T19:29:29;7.87;;;4.00;;
15183;SDS011;7693;49.266;7.104;2023-04-25T19:31:57;15.10;;;6.63;;
15183;SDS011;7693;49.266;7.104;2023-04-25T19:34:23;6.43;;;3.90;;
15183;SDS011;7693;49.266;7.104;2023-04-25T19:36:49;6.33;;;4.43;;
15183;SDS011;7693;49.266;7.104;2023-04-25T19:39:18;7.83;;;5.13;;
15183;SDS011;7693;49.266;7.104;2023-04-25T19:41:44;5.80;;;5.17;;
15183;SDS011;7693;49.266;7.104;2023-04-25T19:44:10;7.47;;;4.63;;
15183;SDS011;7693;49.266;7.104;2023-04-25T19:46:36;10.33;;;5.50;;
15183;SDS011;7693;49.266;7.104;2023-04-25T19:49:02;4.67;;;4.27;;
15183;SDS011;7693;49.266;7.104;2023-04-25T19:51:30;5.70;;;4.97;;
15183;SDS011;7693;49.266;7.104;2023-04-25T19:53:55;6.97;;;5.27;;
15183;SDS011;7693;49.266;7.104;2023-04-25T19:56:21;7.90;;;5.27;;
15183;SDS011;7693;49.266;7.104;2023-04-25T19:58:48;7.20;;;4.80;;
15183;SDS011;7693;49.266;7.104;2023-04-25T20:01:14;4.53;;;4.20;;
15183;SDS011;7693;49.266;7.104;2023-04-25T20:03:41;6.00;;;5.13;;
15183;SDS011;7693;49.266;7.104;2023-04-25T20:06:06;7.03;;;5.13;;
15183;SDS011;7693;49.266;7.104;2023-04-25T20:08:33;5.73;;;5.13;;
15183;SDS011;7693;49.266;7.104;2023-04-25T20:10:59;6.03;;;4.70;;
15183;SDS011;7693;49.266;7.104;2023-04-25T20:13:25;8.67;;;4.80;;
15183;SDS011;7693;49.266;7.104;2023-04-25T20:15:51;7.40;;;4.93;;
15183;SDS011;7693;49.266;7.104;2023-04-25T20:18:16;7.13;;;5.00;;
15183;SDS011;7693;49.266;7.104;2023-04-25T20:20:42;7.67;;;4.60;;
15183;SDS011;7693;49.266;7.104;2023-04-25T20:23:08;8.93;;;5.87;;
15183;SDS011;7693;49.266;7.104;2023-04-25T20:25:34;6.13;;;5.50;;
15183;SDS011;7693;49.266;7.104;2023-04-25T20:27:59;8.00;;;5.33;;
15183;SDS011;7693;49.266;7.104;2023-04-25T20:30:25;9.33;;;6.10;;
15183;SDS011;7693;49.266;7.104;2023-04-25T20:32:50;9.77;;;6.90;;
15183;SDS011;7693;49.266;7.104;2023-04-25T20:35:16;8.43;;;5.87;;
15183;SDS011;7693;49.266;7.104;2023-04-25T20:37:41;6.23;;;5.47;;
15183;SDS011;7693;49.266;7.104;2023-04-25T20:40:07;10.77;;;5.10;;
15183;SDS011;7693;49.266;7.104;2023-04-25T20:42:33;6.87;;;5.07;;
15183;SDS011;7693;49.266;7.104;2023-04-25T20:45:00;5.20;;;4.70;;
15183;SDS011;7693;49.266;7.104;2023-04-25T20:47:26;34.23;;;13.87;;
15183;SDS011;7693;49.266;7.104;2023-04-25T20:49:53;11.77;;;6.20;;
15183;SDS011;7693;49.266;7.104;2023-04-25T20:52:18;8.70;;;5.83;;
15183;SDS011;7693;49.266;7.104;2023-04-25T20:54:44;7.83;;;5.10;;
15183;SDS011;7693;49.266;7.104;2023-04-25T20:57:14;10.30;;;5.90;;
15183;SDS011;7693;49.266;7.104;2023-04-25T20:59:41;9.23;;;4.50;;
15183;SDS011;7693;49.266;7.104;2023-04-25T21:02:07;24.57;;;11.40;;
15183;SDS011;7693;49.266;7.104;2023-04-25T21:04:35;16.43;;;7.47;;
15183;SDS011;7693;49.266;7.104;2023-04-25T21:07:01;9.00;;;4.90;;
15183;SDS011;7693;49.266;7.104;2023-04-25T21:09:27;9.00;;;5.30;;
15183;SDS011;7693;49.266;7.104;2023-04-25T21:11:52;5.07;;;4.57;;
15183;SDS011;7693;49.266;7.104;2023-04-25T21:14:18;6.10;;;4.83;;
15183;SDS011;7693;49.266;7.104;2023-04-25T21:16:44;5.97;;;4.27;;
15183;SDS011;7693;49.266;7.104;2023-04-25T21:19:10;10.00;;;4.63;;
15183;SDS011;7693;49.266;7.104;2023-04-25T21:21:35;12.00;;;4.47;;
15183;SDS011;7693;49.266;7.104;2023-04-25T21:24:01;6.63;;;4.33;;
15183;SDS011;7693;49.266;7.104;2023-04-25T21:26:27;8.07;;;4.23;;
15183;SDS011;7693;49.266;7.104;2023-04-25T21:28:52;6.03;;;4.53;;
15183;SDS011;7693;49.266;7.104;2023-04-25T21:31:18;12.33;;;5.87;;